createdAt,value
2018-07-04T00:02:25.884Z,57.50
2018-07-04T00:05:10.341Z,57.50
2018-07-04T00:07:54.783Z,57.70
2018-07-04T00:10:39.186Z,57.80
2018-07-04T00:13:23.823Z,57.70
2018-07-04T00:16:08.303Z,57.70
2018-07-04T00:18:52.726Z,57.70
2018-07-04T00:21:37.266Z,57.60
2018-07-04T00:24:21.851Z,58.20
2018-07-04T00:27:06.404Z,58.10
2018-07-04T00:29:50.958Z,58.00
2018-07-04T00:32:35.516Z,58.30
2018-07-04T00:35:19.947Z,58.20
2018-07-04T00:38:04.487Z,58.40
2018-07-04T00:40:48.813Z,58.50
2018-07-04T00:43:33.337Z,58.70
2018-07-04T00:46:17.876Z,58.80
2018-07-04T00:49:02.487Z,58.90
2018-07-04T00:51:46.986Z,59.00
2018-07-04T00:54:31.419Z,59.10
2018-07-04T00:57:18.955Z,59.20
2018-07-04T01:00:03.388Z,59.70
2018-07-04T01:02:47.834Z,59.60
2018-07-04T01:05:32.378Z,59.70
2018-07-04T01:08:16.990Z,59.80
2018-07-04T01:11:01.634Z,59.80
2018-07-04T01:13:46.113Z,60.30
2018-07-04T01:16:30.538Z,61.30
2018-07-04T01:19:14.981Z,60.60
2018-07-04T01:21:59.419Z,60.80
2018-07-04T01:24:43.868Z,60.80
2018-07-04T01:27:28.578Z,62.10
2018-07-04T01:30:13.225Z,61.70
2018-07-04T01:32:57.778Z,61.70
2018-07-04T01:35:42.171Z,62.10
2018-07-04T01:38:26.719Z,62.10
2018-07-04T01:41:11.230Z,62.90
2018-07-04T01:43:56.459Z,63.30
2018-07-04T01:46:41.023Z,62.80
2018-07-04T01:49:25.599Z,62.80
2018-07-04T01:52:09.887Z,63.00
2018-07-04T01:54:54.402Z,63.60
2018-07-04T01:57:39.022Z,63.30
2018-07-04T02:00:23.713Z,63.40
2018-07-04T02:03:08.267Z,63.50
2018-07-04T02:05:52.767Z,63.70
2018-07-04T02:08:37.215Z,63.70
2018-07-04T02:11:21.566Z,63.70
2018-07-04T02:14:05.976Z,63.90
2018-07-04T02:16:50.461Z,63.90
2018-07-04T02:19:34.900Z,64.70
2018-07-04T02:22:19.302Z,63.90
2018-07-04T02:25:03.754Z,64.20
2018-07-04T02:27:48.205Z,64.20
2018-07-04T02:30:32.628Z,63.80
2018-07-04T02:33:17.111Z,64.50
2018-07-04T02:36:02.529Z,64.50
2018-07-04T02:38:47.148Z,64.90
2018-07-04T02:41:31.843Z,65.30
2018-07-04T02:44:16.403Z,65.30
2018-07-04T02:47:00.787Z,65.30
2018-07-04T02:49:45.207Z,65.70
2018-07-04T02:52:29.637Z,66.00
2018-07-04T02:55:14.162Z,66.00
2018-07-04T02:57:58.632Z,65.90
2018-07-04T03:00:43.240Z,66.40
2018-07-04T03:03:27.725Z,66.70
2018-07-04T03:06:12.172Z,66.10
2018-07-04T03:08:56.710Z,66.80
2018-07-04T03:11:41.164Z,66.60
2018-07-04T03:14:25.826Z,66.90
2018-07-04T03:17:10.401Z,67.00
2018-07-04T03:19:54.765Z,67.00
2018-07-04T03:22:39.535Z,67.20
2018-07-04T03:25:24.087Z,67.30
2018-07-04T03:28:08.762Z,67.30
2018-07-04T03:30:53.368Z,67.80
2018-07-04T03:33:38.011Z,67.80
2018-07-04T03:36:22.539Z,68.00
2018-07-04T03:39:07.553Z,67.90
2018-07-04T03:41:52.134Z,68.90
2018-07-04T03:44:36.732Z,68.50
2018-07-04T03:47:21.366Z,68.20
2018-07-04T03:50:05.851Z,68.60
2018-07-04T03:52:50.338Z,68.50
2018-07-04T03:55:34.876Z,69.00
2018-07-04T03:58:19.266Z,68.70
2018-07-04T04:01:03.597Z,69.60
2018-07-04T04:03:48.202Z,68.90
2018-07-04T04:06:33.085Z,69.40
2018-07-04T04:09:17.469Z,69.00
2018-07-04T04:12:01.894Z,69.30
2018-07-04T04:14:46.588Z,69.90
2018-07-04T04:17:31.123Z,70.30
2018-07-04T04:20:15.683Z,70.00
2018-07-04T04:23:00.110Z,70.30
2018-07-04T04:25:44.715Z,70.40
2018-07-04T04:28:29.266Z,70.40
2018-07-04T04:31:13.749Z,70.50
2018-07-04T04:33:58.344Z,70.80
2018-07-04T04:36:42.832Z,71.10
2018-07-04T04:39:27.460Z,71.30
2018-07-04T04:42:11.887Z,72.10
2018-07-04T04:44:57.295Z,72.20
2018-07-04T04:47:41.649Z,72.40
2018-07-04T04:50:26.293Z,72.50
2018-07-04T04:53:10.682Z,72.30
2018-07-04T04:55:55.191Z,73.60
2018-07-04T04:58:39.812Z,72.40
2018-07-04T05:01:24.320Z,73.40
2018-07-04T05:04:08.858Z,73.00
2018-07-04T05:06:53.395Z,72.70
2018-07-04T05:09:37.963Z,73.60
2018-07-04T05:12:22.423Z,76.00
2018-07-04T05:15:07.028Z,75.70
2018-07-04T05:20:30.199Z,78.20
2018-07-04T05:23:14.740Z,78.40
2018-07-04T05:25:59.244Z,78.20
2018-07-04T05:28:43.711Z,76.50
2018-07-04T05:31:28.238Z,77.70
2018-07-04T05:34:12.762Z,77.00
2018-07-04T05:36:57.262Z,76.60
2018-07-04T05:39:41.802Z,76.10
2018-07-04T05:42:26.274Z,75.80
2018-07-04T05:45:10.687Z,75.70
2018-07-04T05:47:55.212Z,75.60
2018-07-04T05:50:39.792Z,75.80
2018-07-04T05:53:24.179Z,75.70
2018-07-04T05:56:08.703Z,76.40
2018-07-04T05:58:53.140Z,76.30
2018-07-04T06:01:37.680Z,77.80
2018-07-04T06:04:22.192Z,75.80
2018-07-04T06:07:06.700Z,76.10
2018-07-04T06:09:51.276Z,76.00
2018-07-04T06:12:35.622Z,76.10
2018-07-04T06:15:20.088Z,75.60
2018-07-04T06:18:04.574Z,77.10
2018-07-04T06:20:49.059Z,77.80
2018-07-04T06:23:33.551Z,75.40
2018-07-04T06:26:18.128Z,74.70
2018-07-04T06:29:02.755Z,74.10
2018-07-04T06:31:47.405Z,74.70
2018-07-04T06:34:31.937Z,76.40
2018-07-04T06:37:16.387Z,73.80
2018-07-04T06:39:48.544Z,73.70
2018-07-04T06:42:20.686Z,73.20
2018-07-04T06:44:52.860Z,72.00
2018-07-04T06:47:25.475Z,70.80
2018-07-04T06:49:57.644Z,72.80
2018-07-04T06:52:29.864Z,71.00
2018-07-04T06:55:02.012Z,67.40
2018-07-04T06:57:34.195Z,68.80
2018-07-04T07:00:06.403Z,67.20
2018-07-04T07:02:38.562Z,67.20
2018-07-04T07:05:23.166Z,65.90
2018-07-04T07:08:07.590Z,65.10
2018-07-04T07:10:52.065Z,64.00
2018-07-04T07:13:37.063Z,64.60
2018-07-04T07:16:21.777Z,63.70
2018-07-04T07:19:06.224Z,64.60
2018-07-04T07:21:50.658Z,64.60
2018-07-04T07:24:35.112Z,60.90
2018-07-04T07:27:19.747Z,62.80
2018-07-04T07:30:04.392Z,63.00
2018-07-04T07:32:48.799Z,62.90
2018-07-04T07:35:33.391Z,62.70
2018-07-04T07:38:17.830Z,64.40
2018-07-04T07:41:02.424Z,63.30
2018-07-04T07:43:46.995Z,61.60
2018-07-04T07:46:31.434Z,60.30
2018-07-04T07:49:15.864Z,59.50
2018-07-04T07:52:01.232Z,58.70
2018-07-04T07:54:45.875Z,60.40
2018-07-04T07:57:30.443Z,65.40
2018-07-04T08:00:15.033Z,64.70
2018-07-04T08:02:59.575Z,65.70
2018-07-04T08:05:44.007Z,64.60
2018-07-04T08:08:28.423Z,63.80
2018-07-04T08:11:12.980Z,59.30
2018-07-04T08:13:57.377Z,57.10
2018-07-04T08:16:42.004Z,61.50
2018-07-04T08:19:26.429Z,64.10
2018-07-04T08:22:10.732Z,63.40
2018-07-04T08:24:55.186Z,59.00
2018-07-04T08:27:39.731Z,59.00
2018-07-04T08:30:24.043Z,56.30
2018-07-04T08:33:08.414Z,57.00
2018-07-04T08:35:52.976Z,55.30
2018-07-04T08:38:37.411Z,56.60
2018-07-04T08:41:21.851Z,59.30
2018-07-04T08:44:06.274Z,55.80
2018-07-04T08:46:50.655Z,54.00
2018-07-04T08:49:35.240Z,56.60
2018-07-04T08:52:19.631Z,55.50
2018-07-04T08:55:04.031Z,52.60
2018-07-04T08:57:48.438Z,53.40
2018-07-04T09:00:32.877Z,53.00
2018-07-04T09:03:17.230Z,54.00
2018-07-04T09:06:01.644Z,55.00
2018-07-04T09:08:46.112Z,54.60
2018-07-04T09:11:30.807Z,55.20
2018-07-04T09:14:15.439Z,51.20
2018-07-04T09:17:00.035Z,50.60
2018-07-04T09:19:44.622Z,51.50
2018-07-04T09:22:29.228Z,50.20
2018-07-04T09:25:13.827Z,49.90
2018-07-04T09:27:58.439Z,48.40
2018-07-04T09:30:42.853Z,51.80
2018-07-04T09:33:27.392Z,51.70
2018-07-04T09:36:11.913Z,52.00
2018-07-04T09:38:56.478Z,50.50
2018-07-04T09:41:41.031Z,44.30
2018-07-04T09:44:25.558Z,43.80
2018-07-04T09:47:10.138Z,44.20
2018-07-04T09:49:54.756Z,44.30
2018-07-04T09:52:39.215Z,47.00
2018-07-04T09:55:23.699Z,41.10
2018-07-04T09:58:12.108Z,45.60
2018-07-04T10:01:02.004Z,45.80
2018-07-04T10:03:46.545Z,43.60
2018-07-04T10:06:31.015Z,40.00
2018-07-04T10:09:15.552Z,41.70
2018-07-04T10:12:00.001Z,38.40
2018-07-04T10:14:44.502Z,37.50
2018-07-04T10:17:28.856Z,37.40
2018-07-04T10:22:52.065Z,37.30
2018-07-04T10:25:36.575Z,36.40
2018-07-04T10:28:21.226Z,38.50
2018-07-04T10:31:05.573Z,36.40
2018-07-04T10:33:50.000Z,36.50
2018-07-04T10:36:34.428Z,36.70
2018-07-04T10:39:18.848Z,36.30
2018-07-04T10:42:03.356Z,34.10
2018-07-04T10:44:47.986Z,35.40
2018-07-04T10:47:32.410Z,35.40
2018-07-04T10:50:16.854Z,36.00
2018-07-04T10:53:01.197Z,34.70
2018-07-04T10:55:45.628Z,32.30
2018-07-04T10:58:30.188Z,32.60
2018-07-04T11:01:14.748Z,28.90
2018-07-04T11:03:59.284Z,26.70
2018-07-04T11:06:43.645Z,30.00
2018-07-04T11:09:28.023Z,28.30
2018-07-04T11:12:12.426Z,31.60
2018-07-04T11:14:57.318Z,29.70
2018-07-04T11:17:41.857Z,32.30
2018-07-04T11:20:26.239Z,32.10
2018-07-04T11:23:10.790Z,28.70
2018-07-04T11:25:55.294Z,29.90
2018-07-04T11:28:39.868Z,32.70
2018-07-04T11:31:24.238Z,30.10
2018-07-04T11:34:08.648Z,25.50
2018-07-04T11:36:52.935Z,28.90
2018-07-04T11:39:37.461Z,29.00
2018-07-04T11:42:21.801Z,30.30
2018-07-04T11:45:06.279Z,31.00
2018-07-04T11:47:38.478Z,28.10
2018-07-04T11:50:10.649Z,30.40
2018-07-04T11:52:42.805Z,30.40
2018-07-04T11:55:14.983Z,28.40
2018-07-04T11:57:47.127Z,29.90
2018-07-04T12:00:19.284Z,26.70
2018-07-04T12:02:51.509Z,28.40
2018-07-04T12:05:36.044Z,25.50
2018-07-04T12:10:40.635Z,26.50
2018-07-04T12:13:12.811Z,29.30
2018-07-04T12:15:45.024Z,29.70
2018-07-04T12:18:17.191Z,29.30
2018-07-04T12:20:49.361Z,26.80
2018-07-04T12:23:21.535Z,28.30
2018-07-04T12:25:53.692Z,28.80
2018-07-04T12:28:25.843Z,28.20
2018-07-04T12:30:57.995Z,26.70
2018-07-04T12:33:30.145Z,26.90
2018-07-04T12:36:02.311Z,25.10
2018-07-04T12:38:34.467Z,26.50
2018-07-04T12:41:06.623Z,26.00
2018-07-04T12:43:38.808Z,27.20
2018-07-04T12:46:10.930Z,27.80
2018-07-04T12:48:43.075Z,27.30
2018-07-04T12:51:15.225Z,25.30
2018-07-04T12:53:47.449Z,24.70
2018-07-04T12:56:31.991Z,25.00
2018-07-04T12:59:16.397Z,24.80
2018-07-04T13:02:01.477Z,27.00
2018-07-04T13:04:46.425Z,26.50
2018-07-04T13:07:30.876Z,28.00
2018-07-04T13:10:15.173Z,27.60
2018-07-04T13:12:59.758Z,26.50
2018-07-04T13:15:44.324Z,27.90
2018-07-04T13:18:28.884Z,24.60
2018-07-04T13:21:13.437Z,25.70
2018-07-04T13:23:57.903Z,24.90
2018-07-04T13:26:42.327Z,23.90
2018-07-04T13:29:26.828Z,25.90
2018-07-04T13:32:11.355Z,23.40
2018-07-04T13:34:55.742Z,23.90
2018-07-04T13:37:40.342Z,25.40
2018-07-04T13:40:24.707Z,26.70
2018-07-04T13:43:09.194Z,25.40
2018-07-04T13:45:53.655Z,25.20
2018-07-04T13:48:38.003Z,23.80
2018-07-04T13:51:22.288Z,23.00
2018-07-04T13:54:06.597Z,23.50
2018-07-04T13:56:50.962Z,25.00
2018-07-04T13:59:35.300Z,24.30
2018-07-04T14:02:19.806Z,25.50
2018-07-04T14:05:04.345Z,24.90
2018-07-04T14:07:48.600Z,25.00
2018-07-04T14:10:33.006Z,23.10
2018-07-04T14:13:17.567Z,24.00
2018-07-04T14:16:01.959Z,25.60
2018-07-04T14:18:46.267Z,24.00
2018-07-04T14:21:30.824Z,23.80
2018-07-04T14:24:15.361Z,24.50
2018-07-04T14:26:59.730Z,23.60
2018-07-04T14:29:44.053Z,23.80
2018-07-04T14:32:28.373Z,24.60
2018-07-04T14:35:12.847Z,25.10
2018-07-04T14:40:35.631Z,25.40
2018-07-04T14:43:20.212Z,25.80
2018-07-04T14:46:04.780Z,25.20
2018-07-04T14:48:49.227Z,24.00
2018-07-04T14:51:33.608Z,25.00
2018-07-04T14:56:56.689Z,26.10
2018-07-04T14:59:41.171Z,26.10
2018-07-04T15:02:25.719Z,25.10
2018-07-04T15:05:10.194Z,25.20
2018-07-04T15:07:54.635Z,25.70
2018-07-04T15:10:38.968Z,25.20
2018-07-04T15:13:23.399Z,26.00
2018-07-04T15:16:09.612Z,26.20
2018-07-04T15:18:52.316Z,26.20
2018-07-04T15:21:36.753Z,26.60
2018-07-04T15:24:21.190Z,26.50
2018-07-04T15:27:05.804Z,26.80
2018-07-04T15:29:50.310Z,26.90
2018-07-04T15:32:34.908Z,27.50
2018-07-04T15:35:20.327Z,27.00
2018-07-04T15:38:04.706Z,25.20
2018-07-04T15:40:49.098Z,26.00
2018-07-04T15:43:33.549Z,25.30
2018-07-04T15:46:18.214Z,25.20
2018-07-04T15:49:02.798Z,26.30
2018-07-04T15:51:47.408Z,25.60
2018-07-04T15:54:31.887Z,26.40
2018-07-04T15:57:16.633Z,25.80
2018-07-04T16:00:01.149Z,26.60
2018-07-04T16:02:45.801Z,26.20
2018-07-04T16:05:30.344Z,27.20
2018-07-04T16:08:14.849Z,26.60
2018-07-04T16:10:59.495Z,25.90
2018-07-04T16:13:44.018Z,26.70
2018-07-04T16:16:28.525Z,27.00
2018-07-04T16:19:12.876Z,27.50
2018-07-04T16:21:57.454Z,27.30
2018-07-04T16:24:41.915Z,26.70
2018-07-04T16:27:26.476Z,27.10
2018-07-04T16:30:10.959Z,27.50
2018-07-04T16:32:55.455Z,27.90
2018-07-04T16:35:39.925Z,28.20
2018-07-04T16:38:24.455Z,27.70
2018-07-04T16:41:09.022Z,28.10
2018-07-04T16:43:53.708Z,27.80
2018-07-04T16:46:38.311Z,28.10
2018-07-04T16:49:22.724Z,27.50
2018-07-04T16:52:07.114Z,27.80
2018-07-04T16:54:51.520Z,27.40
2018-07-04T16:57:35.991Z,28.00
2018-07-04T17:00:20.461Z,27.80
2018-07-04T17:03:05.023Z,28.00
2018-07-04T17:05:49.442Z,28.40
2018-07-04T17:08:33.960Z,28.40
2018-07-04T17:11:18.552Z,28.70
2018-07-04T17:14:02.895Z,28.60
2018-07-04T17:16:47.319Z,28.70
2018-07-04T17:19:31.873Z,28.60
2018-07-04T17:22:16.228Z,29.10
2018-07-04T17:25:00.552Z,29.20
2018-07-04T17:27:45.082Z,29.70
2018-07-04T17:30:29.527Z,29.40
2018-07-04T17:33:13.900Z,29.00
2018-07-04T17:35:58.245Z,29.00
2018-07-04T17:41:21.416Z,29.50
2018-07-04T17:44:05.840Z,29.20
2018-07-04T17:46:50.337Z,29.50
2018-07-04T17:49:34.732Z,29.50
2018-07-04T17:52:19.307Z,30.60
2018-07-04T17:55:03.855Z,29.90
2018-07-04T17:57:48.482Z,30.10
2018-07-04T18:00:32.939Z,30.50
2018-07-04T18:03:17.557Z,31.00
2018-07-04T18:06:02.170Z,31.40
2018-07-04T18:08:46.707Z,31.90
2018-07-04T18:11:31.165Z,31.80
2018-07-04T18:14:15.601Z,32.20
2018-07-04T18:16:59.971Z,32.40
2018-07-04T18:19:44.607Z,32.50
2018-07-04T18:22:29.242Z,32.80
2018-07-04T18:25:13.720Z,32.60
2018-07-04T18:27:58.162Z,33.30
2018-07-04T18:30:42.659Z,33.90
2018-07-04T18:33:27.269Z,34.10
2018-07-04T18:36:11.931Z,34.40
2018-07-04T18:38:56.532Z,34.90
2018-07-04T18:41:41.009Z,34.90
2018-07-04T18:44:25.417Z,35.40
2018-07-04T18:47:10.097Z,35.80
2018-07-04T18:49:54.652Z,36.30
2018-07-04T18:52:39.117Z,36.00
2018-07-04T18:55:23.482Z,36.20
2018-07-04T18:58:07.899Z,36.70
2018-07-04T19:00:52.302Z,37.00
2018-07-04T19:03:36.813Z,37.00
2018-07-04T19:06:21.483Z,37.10
2018-07-04T19:09:06.458Z,37.80
2018-07-04T19:11:50.928Z,37.90
2018-07-04T19:14:35.455Z,38.40
2018-07-04T19:17:19.955Z,38.50
2018-07-04T19:20:04.385Z,38.90
2018-07-04T19:22:48.783Z,38.80
2018-07-04T19:25:33.386Z,38.60
2018-07-04T19:28:18.039Z,38.90
2018-07-04T19:31:02.587Z,39.30
2018-07-04T19:33:47.063Z,39.70
2018-07-04T19:36:31.582Z,39.70
2018-07-04T19:39:15.953Z,40.20
2018-07-04T19:44:38.837Z,40.10
2018-07-04T19:47:23.302Z,40.30
2018-07-04T19:50:07.731Z,40.40
2018-07-04T19:52:52.207Z,40.90
2018-07-04T19:55:36.683Z,40.80
2018-07-04T19:58:21.064Z,40.90
2018-07-04T20:01:05.539Z,41.10
2018-07-04T20:03:50.081Z,41.30
2018-07-04T20:06:34.593Z,41.40
2018-07-04T20:09:19.106Z,41.60
2018-07-04T20:12:03.663Z,41.80
2018-07-04T20:14:48.190Z,41.40
2018-07-04T20:17:32.689Z,40.90
2018-07-04T20:20:17.311Z,41.00
2018-07-04T20:23:01.755Z,41.20
2018-07-04T20:25:46.082Z,41.30
2018-07-04T20:28:30.808Z,42.20
2018-07-04T20:31:15.530Z,42.10
2018-07-04T20:36:38.583Z,42.50
2018-07-04T20:39:23.032Z,42.70
2018-07-04T20:42:07.535Z,42.80
2018-07-04T20:44:52.106Z,43.00
2018-07-04T20:47:36.723Z,43.20
2018-07-04T20:50:21.343Z,43.20
2018-07-04T20:53:05.947Z,43.30
2018-07-04T20:55:50.623Z,43.40
2018-07-04T20:58:35.216Z,43.60
2018-07-04T21:01:19.689Z,43.70
2018-07-04T21:04:04.068Z,43.90
2018-07-04T21:06:48.626Z,44.00
2018-07-04T21:09:33.410Z,44.20
2018-07-04T21:12:17.879Z,44.70
2018-07-04T21:15:02.482Z,44.90
2018-07-04T21:17:47.193Z,45.20
2018-07-04T21:20:31.856Z,45.90
2018-07-04T21:23:16.351Z,46.30
2018-07-04T21:26:00.906Z,46.30
2018-07-04T21:28:45.390Z,46.70
2018-07-04T21:31:29.786Z,47.00
2018-07-04T21:36:52.873Z,47.20
2018-07-04T21:39:37.304Z,46.90
2018-07-04T21:42:21.813Z,46.80
2018-07-04T21:45:06.316Z,47.00
2018-07-04T21:47:50.879Z,47.10
2018-07-04T21:50:35.526Z,47.20
2018-07-04T21:53:20.126Z,47.00
2018-07-04T21:56:04.827Z,47.40
2018-07-04T21:58:49.291Z,47.40
2018-07-04T22:01:33.801Z,48.40
2018-07-04T22:04:18.881Z,48.50
2018-07-04T22:07:03.459Z,48.60
2018-07-04T22:09:48.000Z,48.20
2018-07-04T22:12:32.387Z,48.60
2018-07-04T22:15:16.842Z,49.10
2018-07-04T22:18:01.394Z,49.50
2018-07-04T22:20:46.015Z,49.50
2018-07-04T22:23:30.593Z,50.40
2018-07-04T22:26:14.987Z,49.90
2018-07-04T22:28:59.460Z,50.50
2018-07-04T22:31:43.971Z,51.10
2018-07-04T22:34:28.547Z,51.00
2018-07-04T22:37:13.103Z,50.70
2018-07-04T22:39:57.420Z,50.90
2018-07-04T22:42:41.845Z,50.50
2018-07-04T22:45:26.419Z,51.00
2018-07-04T22:48:10.848Z,51.60
2018-07-04T22:50:55.564Z,51.20
2018-07-04T22:53:40.160Z,51.10
2018-07-04T22:56:24.743Z,51.50
2018-07-04T22:59:09.155Z,52.30
2018-07-04T23:01:53.788Z,52.90
2018-07-04T23:04:38.483Z,52.90
2018-07-04T23:07:23.093Z,52.80
2018-07-04T23:10:07.635Z,53.50
2018-07-04T23:12:52.028Z,53.80
2018-07-04T23:15:36.510Z,54.10
2018-07-04T23:18:21.112Z,54.00
2018-07-04T23:21:06.369Z,54.60
2018-07-04T23:23:51.036Z,54.80
2018-07-04T23:26:35.577Z,55.20
2018-07-04T23:29:19.907Z,55.30
2018-07-04T23:32:04.676Z,55.40
2018-07-04T23:34:49.333Z,55.80
2018-07-04T23:37:33.839Z,56.20
2018-07-04T23:40:18.434Z,56.20
2018-07-04T23:43:03.011Z,56.60
2018-07-04T23:45:47.517Z,56.60
2018-07-04T23:48:31.992Z,57.10
2018-07-04T23:51:16.751Z,57.10
2018-07-04T23:54:01.236Z,57.50
2018-07-04T23:56:45.883Z,57.70
2018-07-04T23:59:30.603Z,57.80
